Butts AAF (Fort Carson) Air Field
KFCS : now visible

Airfield :











YOU CAN JOIN US ON...

 
LOGIN :

Register | Disclaimer

   EN    FR    IT 

 









Legend :    VFR   Marginal VFR   IFR   Intensive IFR   Very Intensive IFR
Visi :
Ceiling :
>= 8 km
>= 3000ft
5 to 8 km
1000 to 3000 ft
1500m to 5 km
500 to 1000 ft
800 to 1500m
200 to 500 ft
< 800m
< 200 ft
Symbols :   Thunderstorms  Fog  Heavy snow  Heavy precipitations  Wind > 20 kt






- Airport Elevation : 5838 ft


KFCS - Butts AAF (Fort Carson) Air Field

METAR N/A
TAF TAF KFCS
Valid from the 28 at 05:00 until the 29 at 11:00 UTC


280500Z 2805/2911 32008KT 9999 SCT200 QNH2970INS
BECMG 2810/2811 24010KT 9999 SCT200 QNH2967INS
BECMG 2816/2817 22015G25KT 9999 SCT200 520009 QNH2950INS
TEMPO 2818/2822 22025G35KT 530009
BECMG 2822/2823 23020G30KT 9999 SCT120 BKN200 520009 QNH2948INS
BECMG 2903/2904 31020G30KT 9999 SCT100 BKN180 520009 QNH2952INS
BECMG 2908/2909 31015G25KT 9999 VCSH BKN030 620309 520009 QNH2960INS TX14/2821Z TNM03/2810Z
KZDV FIR / North America



MET'MAP, your aeronautical weather chart ! - Copyright ORBIFLY December 2007 - Disclaimer

ORBIFLY MET'MAP TEAM :

Programming & Development : Alexandra Zaïnal
Original concept : Baudouin d'Aumeries
Technical & hardware support : Manuel Goepfert
Assistance : Marc-Olivier Méhu




SOURCES & CREDITS :

   NOAA       Earth
Advisory